createdAt,value
2022-09-01T00:01:03.246Z,87.08
2022-09-01T00:02:08.597Z,87.14
2022-09-01T00:03:12.565Z,87.71
2022-09-01T00:04:17.360Z,87.33
2022-09-01T00:05:20.773Z,87.71
2022-09-01T00:06:24.919Z,87.46
2022-09-01T00:07:30.197Z,87.37
2022-09-01T00:08:32.647Z,87.40
2022-09-01T00:09:36.845Z,87.89
2022-09-01T00:10:39.572Z,87.72
2022-09-01T00:11:47.876Z,87.70
2022-09-01T00:12:52.855Z,87.87
2022-09-01T00:13:57.199Z,87.57
2022-09-01T00:14:59.823Z,87.55
2022-09-01T00:16:04.359Z,88.14
2022-09-01T00:17:09.838Z,88.13
2022-09-01T00:18:13.660Z,88.13
2022-09-01T00:19:15.964Z,87.75
2022-09-01T00:20:20.742Z,88.13
2022-09-01T00:21:26.167Z,87.85
2022-09-01T00:22:29.817Z,87.97
2022-09-01T00:23:32.016Z,88.31
2022-09-01T00:24:35.297Z,88.02
2022-09-01T00:25:37.519Z,88.38
2022-09-01T00:26:41.259Z,88.14
2022-09-01T00:27:44.941Z,88.38
2022-09-01T00:28:48.305Z,88.49
2022-09-01T00:29:50.473Z,88.57
2022-09-01T00:30:54.212Z,88.32
2022-09-01T00:31:57.372Z,88.41
2022-09-01T00:33:00.529Z,88.59
2022-09-01T00:34:03.606Z,88.66
2022-09-01T00:35:08.804Z,89.11
2022-09-01T00:36:10.996Z,89.00
2022-09-01T00:37:14.146Z,88.63
2022-09-01T00:38:16.667Z,89.16
2022-09-01T00:39:20.034Z,89.08
2022-09-01T00:40:22.444Z,89.23
2022-09-01T00:41:28.756Z,89.38
2022-09-01T00:42:31.127Z,89.26
2022-09-01T00:43:45.796Z,89.21
2022-09-01T00:44:48.256Z,89.28
2022-09-01T00:45:52.455Z,89.21
2022-09-01T00:46:56.926Z,89.82
2022-09-01T00:48:00.254Z,89.88
2022-09-01T00:49:06.089Z,89.46
2022-09-01T00:50:11.527Z,89.88
2022-09-01T00:51:14.079Z,89.93
2022-09-01T00:52:22.127Z,89.91
2022-09-01T00:53:24.889Z,89.61
2022-09-01T00:54:32.402Z,89.97
2022-09-01T00:55:37.147Z,90.05
2022-09-01T00:56:42.184Z,90.14
2022-09-01T00:57:50.158Z,89.90
2022-09-01T00:58:54.123Z,90.11
2022-09-01T01:00:01.976Z,90.35
2022-09-01T01:01:05.413Z,90.19
2022-09-01T01:02:08.652Z,90.23
2022-09-01T01:03:11.945Z,89.94
2022-09-01T01:04:16.012Z,90.37
2022-09-01T01:05:18.656Z,90.19
2022-09-01T01:06:26.923Z,90.33
2022-09-01T01:07:38.871Z,90.50
2022-09-01T01:08:58.938Z,90.44
2022-09-01T01:10:02.380Z,90.85
2022-09-01T01:11:07.716Z,90.76
2022-09-01T01:12:18.546Z,91.19
2022-09-01T01:13:21.130Z,90.75
2022-09-01T01:14:28.947Z,91.22
2022-09-01T01:15:31.135Z,91.32
2022-09-01T01:16:35.078Z,91.49
2022-09-01T01:17:37.755Z,91.26
2022-09-01T01:18:41.030Z,91.48
2022-09-01T01:20:04.220Z,91.62
2022-09-01T01:21:31.744Z,91.47
2022-09-01T01:23:00.184Z,91.63
2022-09-01T01:24:10.724Z,91.94
2022-09-01T01:25:14.504Z,91.99
2022-09-01T01:26:17.809Z,92.13
2022-09-01T01:27:21.836Z,91.90
2022-09-01T01:28:32.111Z,92.16
2022-09-01T01:29:38.777Z,92.37
2022-09-01T01:30:44.986Z,92.65
2022-09-01T01:31:49.677Z,92.60
2022-09-01T01:32:52.857Z,92.40
2022-09-01T01:33:56.871Z,92.94
2022-09-01T01:35:03.696Z,92.77
2022-09-01T01:36:07.979Z,92.70
2022-09-01T01:37:10.910Z,92.84
2022-09-01T01:38:15.537Z,93.42
2022-09-01T01:39:22.750Z,93.18
2022-09-01T01:40:29.227Z,93.14
2022-09-01T01:41:35.626Z,93.58
2022-09-01T01:42:38.741Z,93.25
2022-09-01T01:43:42.973Z,93.48
2022-09-01T01:44:46.487Z,93.41
2022-09-01T01:45:52.170Z,93.86
2022-09-01T01:46:57.394Z,93.96
2022-09-01T01:48:08.702Z,93.65
2022-09-01T01:49:13.344Z,94.15
2022-09-01T01:50:17.713Z,94.13
2022-09-01T01:51:25.063Z,94.33
2022-09-01T01:52:28.916Z,94.03
2022-09-01T01:53:33.622Z,94.34
2022-09-01T01:54:37.545Z,94.16
2022-09-01T01:55:43.835Z,94.46
2022-09-01T01:56:47.164Z,94.61
2022-09-01T01:57:50.134Z,94.73
2022-09-01T01:58:54.797Z,94.57
2022-09-01T01:59:56.964Z,94.55
2022-09-01T02:01:00.738Z,94.53
2022-09-01T02:02:03.902Z,95.14
2022-09-01T02:03:07.632Z,94.83
2022-09-01T02:04:11.303Z,95.25
2022-09-01T02:05:20.933Z,95.17
2022-09-01T02:06:25.302Z,95.19
2022-09-01T02:07:33.007Z,95.00
2022-09-01T02:08:38.158Z,95.47
2022-09-01T02:09:46.041Z,95.45
2022-09-01T02:10:55.201Z,95.59
2022-09-01T02:11:58.824Z,95.34
2022-09-01T02:13:05.986Z,95.70
2022-09-01T02:14:09.655Z,95.41
2022-09-01T02:15:13.193Z,95.82
2022-09-01T02:16:16.971Z,95.54
2022-09-01T02:17:21.291Z,95.52
2022-09-01T02:18:28.575Z,96.06
2022-09-01T02:19:36.804Z,95.65
2022-09-01T02:20:41.052Z,95.71
2022-09-01T02:21:44.713Z,95.89
2022-09-01T02:22:47.012Z,96.02
2022-09-01T02:24:00.321Z,95.79
2022-09-01T02:25:02.575Z,96.30
2022-09-01T02:26:17.330Z,96.18
2022-09-01T02:27:26.939Z,96.15
2022-09-01T02:28:33.020Z,96.21
2022-09-01T02:29:40.159Z,95.93
2022-09-01T02:30:47.855Z,96.21
2022-09-01T02:31:54.398Z,96.35
2022-09-01T02:32:58.507Z,96.32
2022-09-01T02:34:02.766Z,96.60
2022-09-01T02:35:10.057Z,96.59
2022-09-01T02:36:17.877Z,96.51
2022-09-01T02:37:25.268Z,96.46
2022-09-01T02:38:31.207Z,96.92
2022-09-01T02:39:34.397Z,96.88
2022-09-01T02:40:41.289Z,97.04
2022-09-01T02:41:46.200Z,97.01
2022-09-01T02:42:49.147Z,97.09
2022-09-01T02:43:52.480Z,97.04
2022-09-01T02:44:55.304Z,96.76
2022-09-01T02:46:02.397Z,96.92
2022-09-01T02:47:10.080Z,96.84
2022-09-01T02:48:14.055Z,97.06
2022-09-01T02:49:19.891Z,97.55
2022-09-01T02:50:24.921Z,97.08
2022-09-01T02:51:27.109Z,97.09
2022-09-01T02:52:37.628Z,97.53
2022-09-01T02:53:41.766Z,97.62
2022-09-01T02:54:45.967Z,97.67
2022-09-01T02:55:48.257Z,97.76
2022-09-01T02:56:54.845Z,97.50
2022-09-01T02:57:58.846Z,97.67
2022-09-01T02:59:03.142Z,97.73
2022-09-01T03:00:20.753Z,97.46
2022-09-01T03:01:27.330Z,97.99
2022-09-01T03:02:30.122Z,97.71
2022-09-01T03:03:35.999Z,97.94
2022-09-01T03:04:38.965Z,97.77
2022-09-01T03:05:42.273Z,97.79
2022-09-01T03:06:45.179Z,97.96
2022-09-01T03:07:54.154Z,98.07
2022-09-01T03:08:59.753Z,98.04
2022-09-01T03:10:03.445Z,98.18
2022-09-01T03:11:13.064Z,98.11
2022-09-01T03:12:18.105Z,98.06
2022-09-01T03:13:23.768Z,97.95
2022-09-01T03:14:28.078Z,98.23
2022-09-01T03:15:30.367Z,98.10
2022-09-01T03:16:33.845Z,98.14
2022-09-01T03:17:36.146Z,98.33
2022-09-01T03:18:40.720Z,98.49
2022-09-01T03:19:45.294Z,98.64
2022-09-01T03:20:52.984Z,98.36
2022-09-01T03:22:00.196Z,98.36
2022-09-01T03:23:08.670Z,98.33
2022-09-01T03:24:15.273Z,98.53
2022-09-01T03:25:18.911Z,98.39
2022-09-01T03:26:24.298Z,98.70
2022-09-01T03:27:27.967Z,98.61
2022-09-01T03:28:32.024Z,98.76
2022-09-01T03:29:36.816Z,98.78
2022-09-01T03:30:45.200Z,98.50
2022-09-01T03:31:47.969Z,98.38
2022-09-01T03:32:51.724Z,98.64
2022-09-01T03:33:57.109Z,98.82
2022-09-01T03:35:06.600Z,98.45
2022-09-01T03:36:15.086Z,98.80
2022-09-01T03:37:20.954Z,99.01
2022-09-01T03:38:24.708Z,98.88
2022-09-01T03:39:29.787Z,99.02
2022-09-01T03:40:36.422Z,98.72
2022-09-01T03:41:40.228Z,99.08
2022-09-01T03:42:45.068Z,99.09
2022-09-01T03:43:48.751Z,98.79
2022-09-01T03:44:52.030Z,99.05
2022-09-01T03:45:56.430Z,98.99
2022-09-01T03:47:01.466Z,99.27
2022-09-01T03:48:08.981Z,98.77
2022-09-01T03:49:15.645Z,98.89
2022-09-01T03:50:22.520Z,99.15
2022-09-01T03:51:31.166Z,99.05
2022-09-01T03:52:39.352Z,99.13
2022-09-01T03:53:41.587Z,99.27
2022-09-01T03:54:46.052Z,99.06
2022-09-01T03:55:49.401Z,99.04
2022-09-01T03:56:52.701Z,99.40
2022-09-01T03:58:00.956Z,99.10
2022-09-01T03:59:04.425Z,99.44
2022-09-01T04:00:20.495Z,99.31
2022-09-01T04:01:24.341Z,99.42
2022-09-01T04:02:29.831Z,99.47
2022-09-01T04:03:36.203Z,99.24
2022-09-01T04:04:38.722Z,99.36
2022-09-01T04:05:46.179Z,99.40
2022-09-01T04:06:49.376Z,99.21
2022-09-01T04:07:52.366Z,99.11
2022-09-01T04:09:03.081Z,99.53
2022-09-01T04:10:11.593Z,99.60
2022-09-01T04:11:18.846Z,99.32
2022-09-01T04:12:25.911Z,99.46
2022-09-01T04:13:35.539Z,99.24
2022-09-01T04:14:37.827Z,99.10
2022-09-01T04:15:41.069Z,99.38
2022-09-01T04:17:03.263Z,99.42
2022-09-01T04:18:09.746Z,99.31
2022-09-01T04:19:20.283Z,99.21
2022-09-01T04:20:23.818Z,99.31
2022-09-01T04:21:26.436Z,99.21
2022-09-01T04:22:32.083Z,99.70
2022-09-01T04:23:37.215Z,99.59
2022-09-01T04:24:46.923Z,99.72
2022-09-01T04:25:50.569Z,99.70
2022-09-01T04:26:56.341Z,99.47
2022-09-01T04:27:58.797Z,99.51
2022-09-01T04:29:03.342Z,99.86
2022-09-01T04:30:10.744Z,99.87
2022-09-01T04:31:19.160Z,99.92
2022-09-01T04:32:24.415Z,99.69
2022-09-01T04:33:34.888Z,99.94
2022-09-01T04:34:39.936Z,100.00
2022-09-01T04:35:44.762Z,99.91
2022-09-01T04:36:46.945Z,99.96
2022-09-01T04:37:54.128Z,99.89
2022-09-01T04:38:58.638Z,100.00
2022-09-01T04:40:03.730Z,100.00
2022-09-01T04:41:07.672Z,100.00
2022-09-01T04:42:11.216Z,99.89
2022-09-01T04:43:13.434Z,100.00
2022-09-01T04:44:19.712Z,100.00
2022-09-01T04:45:27.423Z,100.00
2022-09-01T04:46:31.419Z,100.00
2022-09-01T04:47:36.056Z,100.00
2022-09-01T04:48:43.354Z,100.00
2022-09-01T04:49:49.084Z,100.00
2022-09-01T04:50:52.503Z,100.00
2022-09-01T04:52:07.096Z,100.00
2022-09-01T04:53:12.169Z,100.00
2022-09-01T04:54:18.332Z,100.00
2022-09-01T04:55:22.358Z,100.00
2022-09-01T04:56:26.834Z,100.00
2022-09-01T04:57:47.663Z,100.00
2022-09-01T04:58:50.038Z,100.00
2022-09-01T04:59:56.939Z,100.00
2022-09-01T05:01:00.407Z,100.00
2022-09-01T05:02:07.825Z,100.00
2022-09-01T05:03:10.404Z,100.00
2022-09-01T05:04:33.949Z,100.00
2022-09-01T05:05:42.546Z,100.00
2022-09-01T05:06:47.208Z,100.00
2022-09-01T05:07:51.920Z,100.00
2022-09-01T05:08:57.796Z,100.00
2022-09-01T05:10:13.813Z,100.00
2022-09-01T05:11:24.135Z,100.00
2022-09-01T05:12:33.708Z,100.00
2022-09-01T05:13:38.981Z,100.00
2022-09-01T05:14:43.742Z,100.00
2022-09-01T05:15:48.741Z,100.00
2022-09-01T05:16:57.175Z,100.00
2022-09-01T05:18:02.358Z,100.00
2022-09-01T05:19:06.467Z,100.00
2022-09-01T05:20:12.009Z,100.00
2022-09-01T05:21:17.562Z,100.00
2022-09-01T05:22:22.259Z,100.00
2022-09-01T05:23:40.457Z,100.00
2022-09-01T05:24:44.782Z,100.00
2022-09-01T05:25:49.610Z,100.00
2022-09-01T05:26:52.859Z,100.00
2022-09-01T05:27:55.776Z,100.00
2022-09-01T05:29:01.813Z,100.00
2022-09-01T05:30:11.021Z,100.00
2022-09-01T05:31:19.811Z,100.00
2022-09-01T05:32:26.112Z,100.00
2022-09-01T05:33:29.996Z,100.00
2022-09-01T05:34:36.458Z,100.00
2022-09-01T05:35:43.581Z,100.00
2022-09-01T05:36:50.772Z,100.00
2022-09-01T05:37:54.718Z,100.00
2022-09-01T05:38:58.117Z,100.00
2022-09-01T05:40:02.451Z,100.00
2022-09-01T05:41:08.629Z,100.00
2022-09-01T05:42:12.072Z,100.00
2022-09-01T05:43:14.933Z,100.00
2022-09-01T05:44:18.876Z,100.00
2022-09-01T05:45:23.791Z,100.00
2022-09-01T05:46:30.152Z,100.00
2022-09-01T05:47:37.546Z,100.00
2022-09-01T05:48:40.965Z,100.00
2022-09-01T05:49:44.766Z,100.00
2022-09-01T05:50:49.737Z,99.99
2022-09-01T05:51:54.160Z,100.00
2022-09-01T05:52:58.262Z,100.00
2022-09-01T05:54:02.047Z,100.00
2022-09-01T05:55:09.068Z,99.97
2022-09-01T05:56:15.100Z,99.87
2022-09-01T05:57:33.874Z,99.92
2022-09-01T06:00:02.241Z,100.00
2022-09-01T06:01:22.313Z,99.60
2022-09-01T06:02:28.819Z,99.69
2022-09-01T06:03:38.035Z,99.30
2022-09-01T06:04:44.334Z,99.33
2022-09-01T06:05:53.106Z,99.25
2022-09-01T06:07:06.519Z,99.40
2022-09-01T06:08:10.821Z,98.97
2022-09-01T06:09:18.115Z,99.26
2022-09-01T06:10:21.596Z,99.13
2022-09-01T06:11:25.850Z,98.94
2022-09-01T06:12:29.071Z,98.25
2022-09-01T06:13:32.520Z,98.20
2022-09-01T06:14:36.626Z,97.90
2022-09-01T06:15:40.207Z,98.20
2022-09-01T06:16:43.626Z,97.97
2022-09-01T06:17:49.085Z,97.57
2022-09-01T06:18:53.420Z,97.53
2022-09-01T06:19:59.545Z,97.33
2022-09-01T06:21:04.294Z,97.19
2022-09-01T06:22:07.446Z,97.02
2022-09-01T06:23:10.029Z,96.81
2022-09-01T06:24:13.178Z,97.01
2022-09-01T06:25:17.438Z,96.66
2022-09-01T06:26:27.179Z,96.32
2022-09-01T06:27:29.496Z,96.09
2022-09-01T06:28:32.884Z,96.32
2022-09-01T06:29:35.277Z,95.90
2022-09-01T06:30:38.929Z,95.97
2022-09-01T06:31:45.962Z,95.90
2022-09-01T06:32:51.532Z,95.24
2022-09-01T06:33:54.898Z,95.47
2022-09-01T06:35:00.492Z,94.99
2022-09-01T06:36:04.074Z,94.85
2022-09-01T06:37:07.178Z,94.46
2022-09-01T06:38:11.364Z,94.37
2022-09-01T06:39:22.658Z,94.22
2022-09-01T06:40:28.804Z,93.92
2022-09-01T06:41:32.643Z,93.24
2022-09-01T06:42:35.387Z,92.99
2022-09-01T06:43:40.137Z,93.11
2022-09-01T06:44:42.936Z,92.87
2022-09-01T06:45:49.926Z,92.72
2022-09-01T06:46:53.790Z,92.10
2022-09-01T06:48:00.237Z,91.97
2022-09-01T06:49:04.376Z,91.83
2022-09-01T06:50:08.648Z,91.77
2022-09-01T06:51:16.060Z,91.26
2022-09-01T06:52:21.145Z,90.95
2022-09-01T06:53:32.818Z,91.09
2022-09-01T06:54:43.781Z,90.67
2022-09-01T06:55:49.604Z,90.33
2022-09-01T06:56:53.524Z,90.26
2022-09-01T06:58:05.861Z,90.11
2022-09-01T06:59:10.124Z,89.75
2022-09-01T07:01:41.134Z,89.17
2022-09-01T07:02:45.645Z,88.93
2022-09-01T07:04:13.475Z,88.53
2022-09-01T07:08:25.023Z,87.84
2022-09-01T07:09:48.027Z,87.46
2022-09-01T07:13:08.604Z,86.65
2022-09-01T07:14:16.177Z,86.44
2022-09-01T07:16:51.957Z,85.85
2022-09-01T07:17:58.483Z,85.39
2022-09-01T07:19:03.409Z,85.28
2022-09-01T07:20:27.285Z,84.67
2022-09-01T07:21:39.392Z,84.12
2022-09-01T07:24:10.881Z,83.68
2022-09-01T07:25:17.468Z,83.45
2022-09-01T07:26:47.628Z,82.69
2022-09-01T07:27:50.851Z,82.54
2022-09-01T07:29:04.185Z,82.30
2022-09-01T07:30:10.717Z,81.87
2022-09-01T07:32:47.625Z,80.61
2022-09-01T07:36:25.649Z,79.48
2022-09-01T07:39:55.057Z,78.22
2022-09-01T07:41:43.316Z,89.41
2022-09-01T07:44:26.228Z,77.02
2022-09-01T07:46:00.459Z,76.62
2022-09-01T07:47:51.798Z,76.01
2022-09-01T07:49:01.793Z,74.97
2022-09-01T07:50:24.131Z,74.66
2022-09-01T07:51:37.770Z,74.30
2022-09-01T07:52:43.243Z,73.95
2022-09-01T07:53:50.236Z,73.52
2022-09-01T07:54:55.557Z,73.15
2022-09-01T07:56:00.497Z,73.02
2022-09-01T07:57:03.044Z,72.84
2022-09-01T07:58:08.646Z,72.42
2022-09-01T07:59:15.228Z,72.40
2022-09-01T08:00:45.142Z,72.08
2022-09-01T08:01:51.227Z,71.71
2022-09-01T08:02:57.092Z,70.86
2022-09-01T08:04:02.942Z,70.64
2022-09-01T08:05:09.381Z,70.35
2022-09-01T08:06:14.640Z,70.23
2022-09-01T08:07:18.196Z,69.98
2022-09-01T08:08:24.995Z,69.27
2022-09-01T08:09:38.028Z,69.25
2022-09-01T08:10:43.045Z,68.95
2022-09-01T08:12:02.933Z,68.41
2022-09-01T08:13:15.375Z,68.31
2022-09-01T08:14:19.122Z,67.54
2022-09-01T08:16:52.928Z,66.57
2022-09-01T08:17:55.719Z,66.21
2022-09-01T08:19:01.459Z,66.00
2022-09-01T08:20:10.526Z,65.59
2022-09-01T08:21:40.980Z,65.38
2022-09-01T08:23:05.661Z,63.55
2022-09-01T08:24:10.827Z,64.43
2022-09-01T08:25:15.702Z,63.89
2022-09-01T08:26:22.583Z,63.86
2022-09-01T08:27:24.723Z,63.62
2022-09-01T08:28:28.143Z,63.49
2022-09-01T08:29:32.244Z,63.39
2022-09-01T08:30:37.021Z,63.18
2022-09-01T08:31:39.632Z,62.96
2022-09-01T08:32:43.230Z,62.74
2022-09-01T08:33:47.611Z,62.43
2022-09-01T08:34:51.341Z,62.03
2022-09-01T08:35:55.413Z,61.94
2022-09-01T08:36:58.818Z,61.26
2022-09-01T08:38:01.149Z,61.33
2022-09-01T08:39:06.222Z,60.81
2022-09-01T08:40:13.065Z,60.63
2022-09-01T08:41:20.043Z,60.42
2022-09-01T08:42:45.364Z,58.74
2022-09-01T08:43:58.969Z,57.51
2022-09-01T08:45:10.734Z,56.55
2022-09-01T08:46:20.012Z,56.70
2022-09-01T08:47:43.711Z,56.43
2022-09-01T08:50:36.284Z,55.66
2022-09-01T08:52:07.741Z,55.59
2022-09-01T08:53:22.541Z,55.31
2022-09-01T08:54:38.194Z,54.80
2022-09-01T08:55:45.105Z,54.52
2022-09-01T08:56:53.009Z,53.81
2022-09-01T08:58:02.142Z,53.39
2022-09-01T08:59:29.099Z,52.78
2022-09-01T09:00:57.930Z,52.54
2022-09-01T09:02:12.871Z,52.63
2022-09-01T09:03:27.181Z,52.40
2022-09-01T09:04:49.228Z,52.42
2022-09-01T09:06:04.650Z,51.87
2022-09-01T09:07:14.179Z,52.09
2022-09-01T09:08:43.875Z,52.13
2022-09-01T09:10:00.485Z,52.46
2022-09-01T09:11:06.758Z,52.51
2022-09-01T09:12:31.191Z,52.10
2022-09-01T09:14:01.506Z,52.06
2022-09-01T09:15:16.305Z,51.28
2022-09-01T09:16:26.327Z,51.00
2022-09-01T09:17:34.525Z,50.86
2022-09-01T09:18:59.807Z,50.83
2022-09-01T09:20:03.753Z,50.88
2022-09-01T09:21:12.175Z,50.37
2022-09-01T09:22:17.360Z,50.05
2022-09-01T09:23:29.460Z,49.76
2022-09-01T09:24:48.382Z,49.38
2022-09-01T09:25:52.130Z,49.84
2022-09-01T09:26:57.202Z,49.86
2022-09-01T09:28:00.819Z,50.17
2022-09-01T09:29:03.316Z,50.29
2022-09-01T09:30:11.836Z,50.18
2022-09-01T09:31:32.461Z,49.61
2022-09-01T09:34:19.119Z,48.51
2022-09-01T09:35:29.372Z,48.38
2022-09-01T09:36:35.876Z,48.77
2022-09-01T09:37:39.164Z,48.51
2022-09-01T09:38:41.277Z,48.48
2022-09-01T09:39:44.490Z,48.23
2022-09-01T09:42:24.042Z,47.98
2022-09-01T09:43:29.672Z,48.19
2022-09-01T09:44:33.007Z,48.22
2022-09-01T09:45:41.662Z,48.14
2022-09-01T09:46:47.713Z,48.21
2022-09-01T09:47:50.951Z,48.04
2022-09-01T09:49:12.387Z,47.16
2022-09-01T09:50:20.868Z,47.25
2022-09-01T09:51:23.964Z,47.26
2022-09-01T09:52:27.017Z,47.24
2022-09-01T09:53:32.627Z,46.85
2022-09-01T09:54:38.359Z,46.83
2022-09-01T09:55:56.123Z,46.87
2022-09-01T09:57:13.421Z,46.81
2022-09-01T09:58:15.725Z,46.54
2022-09-01T09:59:56.034Z,46.12
2022-09-01T10:01:03.735Z,46.25
2022-09-01T10:02:28.367Z,46.31
2022-09-01T10:03:42.531Z,46.21
2022-09-01T10:04:44.744Z,45.81
2022-09-01T10:05:51.702Z,45.53
2022-09-01T10:06:54.378Z,45.35
2022-09-01T10:07:58.420Z,45.20
2022-09-01T10:09:02.116Z,44.89
2022-09-01T10:10:25.768Z,44.98
2022-09-01T10:11:35.538Z,45.12
2022-09-01T10:12:40.571Z,44.81
2022-09-01T10:13:42.706Z,44.47
2022-09-01T10:14:53.651Z,44.15
2022-09-01T10:15:58.244Z,44.17
2022-09-01T10:17:07.085Z,44.25
2022-09-01T10:18:20.602Z,44.09
2022-09-01T10:19:31.121Z,43.83
2022-09-01T10:20:38.659Z,44.16
2022-09-01T10:21:44.877Z,44.04
2022-09-01T10:22:50.654Z,44.12
2022-09-01T10:23:53.685Z,43.82
2022-09-01T10:24:57.814Z,43.91
2022-09-01T10:26:09.611Z,43.76
2022-09-01T10:27:20.144Z,43.80
2022-09-01T10:28:24.720Z,43.60
2022-09-01T10:29:35.162Z,42.74
2022-09-01T10:30:48.111Z,43.52
2022-09-01T10:32:03.492Z,42.91
2022-09-01T10:33:20.961Z,42.63
2022-09-01T10:34:25.868Z,42.17
2022-09-01T10:35:32.387Z,42.02
2022-09-01T10:36:37.374Z,41.99
2022-09-01T10:37:42.173Z,42.00
2022-09-01T10:38:52.774Z,41.71
2022-09-01T10:40:21.012Z,41.52
2022-09-01T10:42:00.311Z,41.11
2022-09-01T10:43:37.855Z,41.23
2022-09-01T10:44:58.087Z,40.96
2022-09-01T10:46:05.991Z,41.14
2022-09-01T10:47:26.974Z,40.34
2022-09-01T10:48:36.602Z,40.25
2022-09-01T10:50:07.723Z,40.04
2022-09-01T10:51:51.375Z,40.21
2022-09-01T10:53:00.782Z,40.53
2022-09-01T10:54:05.825Z,40.56
2022-09-01T10:55:08.862Z,40.39
2022-09-01T10:56:28.108Z,40.00
2022-09-01T10:57:43.601Z,40.32
2022-09-01T11:02:28.109Z,40.74
2022-09-01T11:03:56.240Z,40.13
2022-09-01T11:05:18.436Z,39.40
2022-09-01T11:08:24.579Z,40.26
2022-09-01T11:09:29.273Z,39.99
2022-09-01T11:10:47.668Z,39.89
2022-09-01T11:12:30.637Z,40.63
2022-09-01T11:13:46.407Z,40.49
2022-09-01T11:14:56.986Z,40.79
2022-09-01T11:17:59.660Z,40.98
2022-09-01T11:19:32.028Z,41.33
2022-09-01T11:20:39.166Z,41.04
2022-09-01T11:21:43.374Z,40.84
2022-09-01T11:23:00.172Z,40.78
2022-09-01T11:24:37.803Z,40.76
2022-09-01T11:25:44.804Z,40.94
2022-09-01T11:26:50.020Z,41.20
2022-09-01T11:28:04.073Z,41.16
2022-09-01T11:29:07.210Z,41.06
2022-09-01T11:30:16.089Z,41.28
2022-09-01T11:31:26.998Z,41.23
2022-09-01T11:32:35.578Z,41.51
2022-09-01T11:33:53.447Z,41.35
2022-09-01T11:34:59.867Z,41.10
2022-09-01T11:36:05.705Z,40.72
2022-09-01T11:37:16.244Z,40.98
2022-09-01T11:38:18.858Z,41.13
2022-09-01T11:39:44.205Z,40.49
2022-09-01T11:40:55.851Z,40.20
2022-09-01T11:42:04.677Z,40.73
2022-09-01T11:43:22.161Z,40.82
2022-09-01T11:44:36.796Z,40.60
2022-09-01T11:45:51.063Z,40.66
2022-09-01T11:47:00.399Z,40.46
2022-09-01T11:48:10.056Z,40.00
2022-09-01T11:49:30.538Z,39.04
2022-09-01T11:50:35.799Z,38.55
2022-09-01T11:51:45.996Z,38.03
2022-09-01T11:53:00.163Z,38.35
2022-09-01T11:57:56.936Z,37.65
2022-09-01T11:59:00.381Z,38.14
2022-09-01T12:00:09.132Z,38.33
2022-09-01T12:01:20.389Z,38.23
2022-09-01T12:02:27.006Z,38.50
2022-09-01T12:03:30.501Z,38.89
2022-09-01T12:04:38.039Z,38.68
2022-09-01T12:05:40.485Z,38.74
2022-09-01T12:06:54.652Z,39.11
2022-09-01T12:07:58.906Z,39.06
2022-09-01T12:09:04.874Z,38.86
2022-09-01T12:10:18.691Z,39.63
2022-09-01T12:11:25.860Z,39.35
2022-09-01T12:12:32.258Z,39.20
2022-09-01T12:13:36.052Z,39.20
2022-09-01T12:15:02.110Z,39.58
2022-09-01T12:16:20.949Z,39.84
2022-09-01T12:17:25.861Z,39.98
2022-09-01T12:18:30.825Z,40.27
2022-09-01T12:19:38.620Z,40.55
2022-09-01T12:20:41.403Z,40.73
2022-09-01T12:21:56.965Z,40.70
2022-09-01T12:23:02.323Z,40.71
2022-09-01T12:24:16.073Z,40.63
2022-09-01T12:25:22.729Z,40.43
2022-09-01T12:26:28.451Z,40.06
2022-09-01T12:27:30.796Z,40.18
2022-09-01T12:28:35.727Z,39.83
2022-09-01T12:29:38.226Z,40.41
2022-09-01T12:30:43.659Z,40.01
2022-09-01T12:31:50.478Z,39.91
2022-09-01T12:34:36.857Z,39.43
2022-09-01T12:35:40.052Z,39.19
2022-09-01T12:36:42.771Z,38.89
2022-09-01T12:37:46.433Z,39.40
2022-09-01T12:38:49.010Z,38.66
2022-09-01T12:39:54.587Z,38.47
2022-09-01T12:40:57.801Z,38.21
2022-09-01T12:42:08.267Z,37.99
2022-09-01T12:43:10.487Z,38.05
2022-09-01T12:44:30.838Z,36.81
2022-09-01T12:45:40.024Z,36.50
2022-09-01T12:46:46.443Z,36.51
2022-09-01T12:47:50.871Z,36.42
2022-09-01T12:48:55.709Z,37.05
2022-09-01T12:49:58.904Z,36.82
2022-09-01T12:51:04.147Z,36.90
2022-09-01T12:52:14.673Z,36.80
2022-09-01T12:53:37.199Z,36.94
2022-09-01T12:54:40.044Z,37.18
2022-09-01T12:56:00.847Z,36.93
2022-09-01T12:57:04.127Z,37.71
2022-09-01T12:58:09.310Z,37.60
2022-09-01T12:59:15.804Z,37.90
2022-09-01T13:00:23.459Z,38.22
2022-09-01T13:01:33.609Z,37.84
2022-09-01T13:02:38.540Z,37.92
2022-09-01T13:03:41.916Z,38.39
2022-09-01T13:04:45.943Z,37.95
2022-09-01T13:05:53.604Z,37.87
2022-09-01T13:07:02.499Z,37.87
2022-09-01T13:08:08.665Z,37.06
2022-09-01T13:09:10.871Z,36.32
2022-09-01T13:10:14.731Z,36.18
2022-09-01T13:11:21.928Z,35.74
2022-09-01T13:12:26.510Z,35.35
2022-09-01T13:13:29.015Z,34.73
2022-09-01T13:14:32.367Z,33.48
2022-09-01T13:15:37.478Z,32.81
2022-09-01T13:16:40.152Z,33.20
2022-09-01T13:17:43.645Z,32.59
2022-09-01T13:20:12.689Z,31.62
2022-09-01T13:21:16.854Z,31.50
2022-09-01T13:22:20.742Z,31.58
2022-09-01T13:23:23.465Z,31.73
2022-09-01T13:24:30.406Z,31.36
2022-09-01T13:25:35.696Z,31.14
2022-09-01T13:26:38.002Z,30.46
2022-09-01T13:27:44.326Z,30.81
2022-09-01T13:28:47.565Z,30.77
2022-09-01T13:29:50.357Z,31.27
2022-09-01T13:32:24.048Z,31.57
2022-09-01T13:33:28.521Z,31.07
2022-09-01T13:34:30.811Z,32.04
2022-09-01T13:35:36.068Z,31.69
2022-09-01T13:36:42.917Z,31.65
2022-09-01T13:37:47.782Z,32.49
2022-09-01T13:38:51.984Z,32.79
2022-09-01T13:39:59.078Z,32.70
2022-09-01T13:41:01.833Z,33.27
2022-09-01T13:42:05.193Z,33.72
2022-09-01T13:43:08.705Z,34.29
2022-09-01T13:44:12.030Z,35.21
2022-09-01T13:45:16.843Z,35.42
2022-09-01T13:46:20.151Z,35.61
2022-09-01T13:47:31.832Z,35.91
2022-09-01T13:50:09.212Z,36.55
2022-09-01T13:51:25.545Z,37.34
2022-09-01T13:52:27.837Z,37.47
2022-09-01T13:53:31.011Z,37.47
2022-09-01T13:54:33.166Z,37.60
2022-09-01T13:55:39.787Z,37.93
2022-09-01T13:56:41.988Z,38.35
2022-09-01T13:57:45.281Z,38.32
2022-09-01T13:58:48.636Z,38.50
2022-09-01T13:59:52.219Z,38.80
2022-09-01T14:00:56.364Z,38.97
2022-09-01T14:01:58.748Z,39.24
2022-09-01T14:03:07.601Z,39.54
2022-09-01T14:04:13.190Z,39.50
2022-09-01T14:05:17.996Z,39.83
2022-09-01T14:06:23.147Z,39.34
2022-09-01T14:07:30.870Z,38.84
2022-09-01T14:08:34.443Z,39.03
2022-09-01T14:09:36.705Z,39.01
2022-09-01T14:10:42.850Z,38.82
2022-09-01T14:11:47.447Z,39.44
2022-09-01T14:12:54.960Z,39.25
2022-09-01T14:13:59.747Z,39.14
2022-09-01T14:15:12.281Z,39.06
2022-09-01T14:16:18.111Z,39.20
2022-09-01T14:17:20.644Z,39.41
2022-09-01T14:18:24.943Z,39.58
2022-09-01T14:19:29.330Z,39.98
2022-09-01T14:20:37.162Z,40.47
2022-09-01T14:21:41.632Z,40.38
2022-09-01T14:22:45.896Z,40.06
2022-09-01T14:23:50.071Z,39.82
2022-09-01T14:24:56.253Z,39.95
2022-09-01T14:26:00.582Z,39.52
2022-09-01T14:27:03.722Z,39.79
2022-09-01T14:28:07.659Z,40.49
2022-09-01T14:29:10.024Z,40.14
2022-09-01T14:30:21.817Z,40.26
2022-09-01T14:31:27.624Z,40.22
2022-09-01T14:32:29.918Z,39.85
2022-09-01T14:33:34.197Z,39.96
2022-09-01T14:34:37.407Z,39.49
2022-09-01T14:35:42.589Z,39.93
2022-09-01T14:36:47.611Z,39.00
2022-09-01T14:37:51.229Z,39.17
2022-09-01T14:38:54.268Z,38.86
2022-09-01T14:39:59.201Z,38.94
2022-09-01T14:41:03.413Z,38.89
2022-09-01T14:42:06.861Z,39.06
2022-09-01T14:43:14.379Z,38.73
2022-09-01T14:44:17.113Z,38.62
2022-09-01T14:45:22.548Z,38.74
2022-09-01T14:46:25.213Z,38.35
2022-09-01T14:47:28.514Z,38.49
2022-09-01T14:48:32.042Z,38.40
2022-09-01T14:49:36.630Z,38.73
2022-09-01T14:50:43.276Z,38.66
2022-09-01T14:53:12.379Z,38.44
2022-09-01T14:54:14.657Z,38.51
2022-09-01T14:55:18.107Z,38.44
2022-09-01T14:56:21.691Z,38.40
2022-09-01T14:57:29.401Z,38.23
2022-09-01T14:58:34.995Z,38.20
2022-09-01T14:59:37.405Z,38.32
2022-09-01T15:00:42.247Z,38.08
2022-09-01T15:01:44.605Z,37.74
2022-09-01T15:02:48.544Z,37.96
2022-09-01T15:03:51.777Z,38.26
2022-09-01T15:04:55.156Z,38.53
2022-09-01T15:05:58.332Z,38.63
2022-09-01T15:07:06.737Z,38.90
2022-09-01T15:08:15.492Z,39.52
2022-09-01T15:09:20.065Z,39.70
2022-09-01T15:10:26.208Z,40.10
2022-09-01T15:11:28.551Z,40.13